createdAt,value
2023-04-15T00:01:08.430Z,2.80
2023-04-15T00:03:36.934Z,2.70
2023-04-15T00:06:05.075Z,3.03
2023-04-15T00:08:33.208Z,2.90
2023-04-15T00:11:03.039Z,2.87
2023-04-15T00:13:32.529Z,2.27
2023-04-15T00:16:00.744Z,2.93
2023-04-15T00:18:29.573Z,3.07
2023-04-15T00:20:57.355Z,2.90
2023-04-15T00:23:25.288Z,3.00
2023-04-15T00:25:53.054Z,3.20
2023-04-15T00:28:20.974Z,3.53
2023-04-15T00:30:50.101Z,3.47
2023-04-15T00:33:18.268Z,3.60
2023-04-15T00:35:46.117Z,2.80
2023-04-15T00:38:13.818Z,3.17
2023-04-15T00:40:43.530Z,3.10
2023-04-15T00:43:11.342Z,3.83
2023-04-15T00:45:39.210Z,3.53
2023-04-15T00:48:09.502Z,3.30
2023-04-15T00:50:37.184Z,3.40
2023-04-15T00:53:06.177Z,4.10
2023-04-15T00:55:33.880Z,3.80
2023-04-15T00:58:01.766Z,3.70
2023-04-15T01:00:30.329Z,4.10
2023-04-15T01:02:59.950Z,3.60
2023-04-15T01:05:30.259Z,3.50
2023-04-15T01:07:58.017Z,3.20
2023-04-15T01:10:25.842Z,3.73
2023-04-15T01:12:53.570Z,3.57
2023-04-15T01:15:21.884Z,3.40
2023-04-15T01:17:50.155Z,3.90
2023-04-15T01:20:18.176Z,2.90
2023-04-15T01:22:47.945Z,3.50
2023-04-15T01:25:20.233Z,3.30
2023-04-15T01:27:49.458Z,3.57
2023-04-15T01:30:17.472Z,3.27
2023-04-15T01:32:45.304Z,3.80
2023-04-15T01:35:13.117Z,3.57
2023-04-15T01:37:41.085Z,3.37
2023-04-15T01:40:09.832Z,3.10
2023-04-15T01:42:38.716Z,3.53
2023-04-15T01:45:09.249Z,3.73
2023-04-15T01:47:38.824Z,3.60
2023-04-15T01:50:08.488Z,3.50
2023-04-15T01:52:36.212Z,3.70
2023-04-15T01:55:04.324Z,3.57
2023-04-15T01:57:32.502Z,3.87
2023-04-15T02:00:00.297Z,3.87
2023-04-15T02:02:29.510Z,3.87
2023-04-15T02:04:57.473Z,4.03
2023-04-15T02:07:25.504Z,3.70
2023-04-15T02:09:53.294Z,4.10
2023-04-15T02:12:21.125Z,3.60
2023-04-15T02:14:48.876Z,3.13
2023-04-15T02:17:17.383Z,3.83
2023-04-15T02:19:46.490Z,3.60
2023-04-15T02:22:18.401Z,3.40
2023-04-15T02:24:47.492Z,3.30
2023-04-15T02:27:17.978Z,3.50
2023-04-15T02:29:45.895Z,3.83
2023-04-15T02:32:14.043Z,3.90
2023-04-15T02:34:42.791Z,3.87
2023-04-15T02:37:13.473Z,4.00
2023-04-15T02:39:41.305Z,4.27
2023-04-15T02:42:09.107Z,4.40
2023-04-15T02:44:37.677Z,4.30
2023-04-15T02:47:07.413Z,4.20
2023-04-15T02:49:35.223Z,4.10
2023-04-15T02:52:03.013Z,4.30
2023-04-15T02:54:33.904Z,4.10
2023-04-15T02:57:02.096Z,3.90
2023-04-15T02:59:30.122Z,3.87
2023-04-15T03:02:00.874Z,3.90
2023-04-15T03:04:30.163Z,3.67
2023-04-15T03:06:57.893Z,4.20
2023-04-15T03:09:26.712Z,4.10
2023-04-15T03:11:56.948Z,3.67
2023-04-15T03:14:25.738Z,3.97
2023-04-15T03:16:53.691Z,3.83
2023-04-15T03:19:21.468Z,3.60
2023-04-15T03:21:49.259Z,3.93
2023-04-15T03:24:17.459Z,3.67
2023-04-15T03:26:46.392Z,4.33
2023-04-15T03:29:18.757Z,4.10
2023-04-15T03:31:47.226Z,4.03
2023-04-15T03:34:15.025Z,3.67
2023-04-15T03:36:42.891Z,3.53
2023-04-15T03:39:10.947Z,4.10
2023-04-15T03:41:38.610Z,3.30
2023-04-15T03:44:06.661Z,3.73
2023-04-15T03:46:35.840Z,3.87
2023-04-15T03:49:04.077Z,3.60
2023-04-15T03:51:32.313Z,3.40
2023-04-15T03:53:59.972Z,3.93
2023-04-15T03:56:27.765Z,3.40
2023-04-15T03:58:55.638Z,3.60
2023-04-15T04:01:23.922Z,3.60
2023-04-15T04:03:53.207Z,3.90
2023-04-15T04:06:21.203Z,3.80
2023-04-15T04:08:48.961Z,3.80
2023-04-15T04:11:17.213Z,3.53
2023-04-15T04:13:45.094Z,3.73
2023-04-15T04:16:12.958Z,4.67
2023-04-15T04:18:40.902Z,3.83
2023-04-15T04:21:09.965Z,4.30
2023-04-15T04:23:37.803Z,4.10
2023-04-15T04:26:05.519Z,3.57
2023-04-15T04:28:33.385Z,3.87
2023-04-15T04:31:01.242Z,4.07
2023-04-15T04:33:29.096Z,3.60
2023-04-15T04:35:56.769Z,4.00
2023-04-15T04:38:25.973Z,4.67
2023-04-15T04:40:53.767Z,4.00
2023-04-15T04:43:21.599Z,4.07
2023-04-15T04:45:49.352Z,4.10
2023-04-15T04:48:17.422Z,3.60
2023-04-15T04:50:46.982Z,4.03
2023-04-15T04:53:14.857Z,3.93
2023-04-15T04:55:44.017Z,4.37
2023-04-15T04:58:11.799Z,4.47
2023-04-15T05:00:39.768Z,4.47
2023-04-15T05:03:07.695Z,3.90
2023-04-15T05:05:36.946Z,4.00
2023-04-15T05:08:04.805Z,4.43
2023-04-15T05:10:32.802Z,4.90
2023-04-15T05:13:02.075Z,4.73
2023-04-15T05:15:29.857Z,4.03
2023-04-15T05:17:57.624Z,4.90
2023-04-15T05:20:25.454Z,5.40
2023-04-15T05:22:53.148Z,5.40
2023-04-15T05:25:21.277Z,5.77
2023-04-15T05:27:49.075Z,4.60
2023-04-15T05:30:18.312Z,5.30
2023-04-15T05:32:46.180Z,5.00
2023-04-15T05:35:13.980Z,4.77
2023-04-15T05:37:41.998Z,4.97
2023-04-15T05:40:10.654Z,5.10
2023-04-15T05:42:38.574Z,5.20
2023-04-15T05:45:09.317Z,5.50
2023-04-15T05:47:38.529Z,5.60
2023-04-15T05:50:07.278Z,5.73
2023-04-15T05:52:35.029Z,5.77
2023-04-15T05:55:02.845Z,5.57
2023-04-15T05:57:30.565Z,5.77
2023-04-15T05:59:58.494Z,5.43
2023-04-15T06:02:26.605Z,6.33
2023-04-15T06:04:55.919Z,6.30
2023-04-15T06:07:23.710Z,6.47
2023-04-15T06:09:51.574Z,6.47
2023-04-15T06:12:19.569Z,6.30
2023-04-15T06:14:47.651Z,7.43
2023-04-15T06:17:18.477Z,6.90
2023-04-15T06:19:46.343Z,6.80
2023-04-15T06:22:15.767Z,7.07
2023-04-15T06:24:43.560Z,6.90
2023-04-15T06:27:11.408Z,5.67
2023-04-15T06:29:39.275Z,7.00
2023-04-15T06:32:07.753Z,6.93
2023-04-15T06:34:35.652Z,8.23
2023-04-15T06:37:06.142Z,7.67
2023-04-15T06:39:35.545Z,7.40
2023-04-15T06:42:04.555Z,7.23
2023-04-15T06:44:33.869Z,7.77
2023-04-15T06:47:03.063Z,7.57
2023-04-15T06:49:30.959Z,6.93
2023-04-15T06:51:58.776Z,7.17
2023-04-15T06:54:26.596Z,7.67
2023-04-15T06:56:55.760Z,7.30
2023-04-15T06:59:24.126Z,7.00
2023-04-15T07:01:51.952Z,7.37
2023-04-15T07:04:20.472Z,7.80
2023-04-15T07:06:48.251Z,7.30
2023-04-15T07:09:15.987Z,7.87
2023-04-15T07:11:43.784Z,7.73
2023-04-15T07:14:12.987Z,7.53
2023-04-15T07:16:40.715Z,7.10
2023-04-15T07:19:08.445Z,7.57
2023-04-15T07:21:36.240Z,7.57
2023-04-15T07:24:03.970Z,7.13
2023-04-15T07:26:31.825Z,7.37
2023-04-15T07:28:59.930Z,6.10
2023-04-15T07:31:29.500Z,6.63
2023-04-15T07:33:57.366Z,5.97
2023-04-15T07:36:25.157Z,5.33
2023-04-15T07:38:53.140Z,4.93
2023-04-15T07:41:20.974Z,5.03
2023-04-15T07:43:48.930Z,4.13
2023-04-15T07:46:16.713Z,3.70
2023-04-15T07:48:46.440Z,3.20
2023-04-15T07:51:14.218Z,3.33
2023-04-15T07:53:42.312Z,2.87
2023-04-15T07:56:09.984Z,3.23
2023-04-15T07:58:37.681Z,2.97
2023-04-15T08:01:06.001Z,2.87
2023-04-15T08:03:34.115Z,2.70
2023-04-15T08:06:03.368Z,2.60
2023-04-15T08:08:31.196Z,2.43
2023-04-15T08:10:59.381Z,1.93
2023-04-15T08:13:27.817Z,2.10
2023-04-15T08:16:16.187Z,2.10
2023-04-15T08:18:44.015Z,2.17
2023-04-15T08:21:13.319Z,2.60
2023-04-15T08:23:41.220Z,2.17
2023-04-15T08:26:09.696Z,2.40
2023-04-15T08:28:39.487Z,2.33
2023-04-15T08:31:07.589Z,2.07
2023-04-15T08:33:35.317Z,2.07
2023-04-15T08:36:03.368Z,2.33
2023-04-15T08:38:32.521Z,2.30
2023-04-15T08:41:01.794Z,2.20
2023-04-15T08:43:35.520Z,1.80
2023-04-15T08:46:05.321Z,2.37
2023-04-15T08:48:34.525Z,2.30
2023-04-15T08:51:03.103Z,2.37
2023-04-15T08:53:32.686Z,2.70
2023-04-15T08:56:03.542Z,2.60
2023-04-15T08:58:31.467Z,2.20
2023-04-15T09:00:59.928Z,2.60
2023-04-15T09:03:29.445Z,2.43
2023-04-15T09:05:58.327Z,2.43
2023-04-15T09:08:26.277Z,2.50
2023-04-15T09:10:56.404Z,2.27
2023-04-15T09:13:24.274Z,2.50
2023-04-15T09:15:52.296Z,2.30
2023-04-15T09:18:29.734Z,2.78
2023-04-15T09:20:57.545Z,2.30
2023-04-15T09:23:25.342Z,2.72
2023-04-15T09:25:53.216Z,2.30
2023-04-15T09:28:27.382Z,2.05
2023-04-15T09:30:57.754Z,2.20
2023-04-15T09:33:27.063Z,2.53
2023-04-15T09:36:00.026Z,2.30
2023-04-15T09:38:28.941Z,2.10
2023-04-15T09:40:57.123Z,2.10
2023-04-15T09:43:38.866Z,2.47
2023-04-15T09:46:06.779Z,2.83
2023-04-15T09:48:34.518Z,3.10
2023-04-15T09:51:02.837Z,3.30
2023-04-15T09:53:31.921Z,3.63
2023-04-15T09:56:01.414Z,2.77
2023-04-15T09:58:32.268Z,3.20
2023-04-15T10:01:01.869Z,2.90
2023-04-15T10:03:31.636Z,2.87
2023-04-15T10:06:00.875Z,3.30
2023-04-15T10:08:31.048Z,2.50
2023-04-15T10:10:59.194Z,2.50
2023-04-15T10:13:28.935Z,2.77
2023-04-15T10:16:00.520Z,3.25
2023-04-15T10:18:29.750Z,2.90
2023-04-15T10:21:00.558Z,3.95
2023-04-15T10:23:28.888Z,2.85
2023-04-15T10:25:58.512Z,3.13
2023-04-15T10:28:27.384Z,2.97
2023-04-15T10:30:55.158Z,3.15
2023-04-15T10:33:26.696Z,3.13
2023-04-15T10:35:57.125Z,3.47
2023-04-15T10:38:36.117Z,3.07
2023-04-15T10:41:20.209Z,3.00
2023-04-15T10:43:53.759Z,2.50
2023-04-15T10:46:24.077Z,3.65
2023-04-15T10:48:55.012Z,3.35
2023-04-15T10:51:30.913Z,2.70
2023-04-15T10:53:59.934Z,2.90
2023-04-15T10:56:29.757Z,2.80
2023-04-15T10:59:00.365Z,3.22
2023-04-15T11:01:51.459Z,4.57
2023-04-15T11:04:52.482Z,2.65
2023-04-15T11:07:39.576Z,2.17
2023-04-15T11:10:58.802Z,2.13
2023-04-15T11:13:30.499Z,2.40
2023-04-15T11:16:03.260Z,2.22
2023-04-15T11:18:32.966Z,2.30
2023-04-15T11:21:03.815Z,2.47
2023-04-15T11:23:34.868Z,2.10
2023-04-15T11:26:05.598Z,2.67
2023-04-15T11:28:35.008Z,2.63
2023-04-15T11:31:11.889Z,2.28
2023-04-15T11:33:46.097Z,2.40
2023-04-15T11:36:14.267Z,2.30
2023-04-15T11:38:44.308Z,2.37
2023-04-15T11:41:12.700Z,2.58
2023-04-15T11:43:42.569Z,2.75
2023-04-15T11:46:10.612Z,2.60
2023-04-15T11:48:42.818Z,2.72
2023-04-15T11:51:10.913Z,3.28
2023-04-15T11:53:41.155Z,3.42
2023-04-15T11:56:10.598Z,4.25
2023-04-15T11:58:39.732Z,5.00
2023-04-15T12:01:08.847Z,4.13
2023-04-15T12:03:41.692Z,3.80
2023-04-15T12:06:19.399Z,3.97
2023-04-15T12:08:58.346Z,4.00
2023-04-15T12:11:31.651Z,4.47
2023-04-15T12:14:03.854Z,4.80
2023-04-15T12:16:37.215Z,4.85
2023-04-15T12:19:19.310Z,4.90
2023-04-15T12:21:49.264Z,5.60
2023-04-15T12:24:20.948Z,5.60
2023-04-15T12:26:50.564Z,5.35
2023-04-15T12:29:18.887Z,5.32
2023-04-15T12:31:52.966Z,5.35
2023-04-15T12:34:27.975Z,5.67
2023-04-15T12:36:56.374Z,6.13
2023-04-15T12:39:25.206Z,5.18
2023-04-15T12:41:53.437Z,5.20
2023-04-15T12:44:23.986Z,5.18
2023-04-15T12:46:54.433Z,4.80
2023-04-15T12:49:23.030Z,4.72
2023-04-15T12:51:52.740Z,4.75
2023-04-15T12:54:21.304Z,4.32
2023-04-15T12:56:51.060Z,4.80
2023-04-15T12:59:19.573Z,4.03
2023-04-15T13:01:47.864Z,4.22
2023-04-15T13:04:17.395Z,4.15
2023-04-15T13:06:45.456Z,4.10
2023-04-15T13:09:13.197Z,5.00
2023-04-15T13:11:41.346Z,4.93
2023-04-15T13:14:11.449Z,4.85
2023-04-15T13:16:39.751Z,4.82
2023-04-15T13:19:07.657Z,4.45
2023-04-15T13:21:37.003Z,4.45
2023-04-15T13:24:07.230Z,4.87
2023-04-15T13:26:35.976Z,4.55
2023-04-15T13:29:05.062Z,4.30
2023-04-15T13:31:32.929Z,4.38
2023-04-15T13:34:00.831Z,4.60
2023-04-15T13:36:28.551Z,4.35
2023-04-15T13:38:58.357Z,4.80
2023-04-15T13:41:27.423Z,4.40
2023-04-15T13:43:55.099Z,4.90
2023-04-15T13:46:22.988Z,4.20
2023-04-15T13:48:50.881Z,3.78
2023-04-15T13:51:18.610Z,2.80
2023-04-15T13:53:46.345Z,3.50
2023-04-15T13:56:15.509Z,2.97
2023-04-15T13:58:43.220Z,3.75
2023-04-15T14:01:14.461Z,3.50
2023-04-15T14:03:42.431Z,4.27
2023-04-15T14:06:10.537Z,3.90
2023-04-15T14:08:38.296Z,3.40
2023-04-15T14:11:07.424Z,3.67
2023-04-15T14:13:36.885Z,3.60
2023-04-15T14:16:04.875Z,3.45
2023-04-15T14:18:32.626Z,3.23
2023-04-15T14:21:00.366Z,3.28
2023-04-15T14:23:28.208Z,3.25
2023-04-15T14:25:56.180Z,3.23
2023-04-15T14:28:23.848Z,3.07
2023-04-15T14:30:53.417Z,3.53
2023-04-15T14:33:21.233Z,3.30
2023-04-15T14:35:53.570Z,3.60
2023-04-15T14:38:22.831Z,3.80
2023-04-15T14:40:50.588Z,4.30
2023-04-15T14:43:18.345Z,4.43
2023-04-15T14:45:46.271Z,3.60
2023-04-15T14:48:15.657Z,3.75
2023-04-15T14:50:43.520Z,3.77
2023-04-15T14:53:11.252Z,3.40
2023-04-15T14:55:39.027Z,2.90
2023-04-15T14:58:08.167Z,3.40
2023-04-15T15:00:36.071Z,3.50
2023-04-15T15:03:03.979Z,3.50
2023-04-15T15:05:33.578Z,3.45
2023-04-15T15:08:01.463Z,4.97
2023-04-15T15:10:39.525Z,6.27
2023-04-15T15:13:16.815Z,6.70
2023-04-15T15:15:44.721Z,6.57
2023-04-15T15:18:12.595Z,5.00
2023-04-15T15:20:41.836Z,4.50
2023-04-15T15:23:09.589Z,5.37
2023-04-15T15:25:37.446Z,5.40
2023-04-15T15:28:05.605Z,4.67
2023-04-15T15:30:33.455Z,4.32
2023-04-15T15:33:01.222Z,3.53
2023-04-15T15:35:29.107Z,3.80
2023-04-15T15:37:58.219Z,3.80
2023-04-15T15:40:25.906Z,4.23
2023-04-15T15:42:53.847Z,4.32
2023-04-15T15:45:21.682Z,4.63
2023-04-15T15:47:49.576Z,4.33
2023-04-15T15:50:17.366Z,3.57
2023-04-15T15:52:45.223Z,3.53
2023-04-15T15:55:14.479Z,3.72
2023-04-15T15:57:42.254Z,3.22
2023-04-15T16:00:12.855Z,2.73
2023-04-15T16:05:12.402Z,2.70
2023-04-15T16:07:40.154Z,3.05
2023-04-15T16:10:08.916Z,2.83
2023-04-15T16:12:38.017Z,3.17
2023-04-15T16:15:06.777Z,3.03
2023-04-15T16:17:34.808Z,3.73
2023-04-15T16:20:05.551Z,3.80
2023-04-15T16:22:34.222Z,4.13
2023-04-15T16:25:02.608Z,3.87
2023-04-15T16:27:30.342Z,3.50
2023-04-15T16:29:59.432Z,3.17
2023-04-15T16:32:27.642Z,3.70
2023-04-15T16:34:55.507Z,3.50
2023-04-15T16:37:23.301Z,3.67
2023-04-15T16:39:54.044Z,3.00
2023-04-15T16:42:21.888Z,4.17
2023-04-15T16:44:49.649Z,4.80
2023-04-15T16:47:18.733Z,4.67
2023-04-15T16:49:46.408Z,5.13
2023-04-15T16:52:14.437Z,4.73
2023-04-15T16:54:42.162Z,5.03
2023-04-15T16:57:10.155Z,4.40
2023-04-15T16:59:38.986Z,4.37
2023-04-15T17:02:06.807Z,4.40
2023-04-15T17:04:35.996Z,3.70
2023-04-15T17:07:04.055Z,3.40
2023-04-15T17:09:31.876Z,3.60
2023-04-15T17:11:59.741Z,3.37
2023-04-15T17:14:28.779Z,2.90
2023-04-15T17:16:56.631Z,3.60
2023-04-15T17:19:24.533Z,4.20
2023-04-15T17:21:54.931Z,4.40
2023-04-15T17:24:23.041Z,4.80
2023-04-15T17:26:51.043Z,5.20
2023-04-15T17:29:18.796Z,6.27
2023-04-15T17:31:46.750Z,5.27
2023-04-15T17:34:15.844Z,4.70
2023-04-15T17:36:43.993Z,4.70
2023-04-15T17:39:14.997Z,4.70
2023-04-15T17:41:42.980Z,4.90
2023-04-15T17:44:10.976Z,4.67
2023-04-15T17:46:38.769Z,5.03
2023-04-15T17:49:06.891Z,4.88
2023-04-15T17:51:34.719Z,4.47
2023-04-15T17:54:08.396Z,4.13
2023-04-15T17:56:37.521Z,4.90
2023-04-15T17:59:06.342Z,4.57
2023-04-15T18:01:34.157Z,4.33
2023-04-15T18:04:02.101Z,4.40
2023-04-15T18:06:30.991Z,4.67
2023-04-15T18:08:58.720Z,4.80
2023-04-15T18:11:26.484Z,4.82
2023-04-15T18:13:55.576Z,4.50
2023-04-15T18:16:23.688Z,4.47
2023-04-15T18:18:52.241Z,5.40
2023-04-15T18:21:19.969Z,5.43
2023-04-15T18:23:47.675Z,5.43
2023-04-15T18:26:15.616Z,6.03
2023-04-15T18:28:43.332Z,5.87
2023-04-15T18:31:12.426Z,7.33
2023-04-15T18:33:40.252Z,7.93
2023-04-15T18:36:08.042Z,7.93
2023-04-15T18:38:36.017Z,7.67
2023-04-15T18:41:05.370Z,7.00
2023-04-15T18:43:33.284Z,7.83
2023-04-15T18:46:01.851Z,7.43
2023-04-15T18:48:31.138Z,7.77
2023-04-15T18:50:58.884Z,6.90
2023-04-15T18:53:27.955Z,6.70
2023-04-15T18:55:56.236Z,6.90
2023-04-15T18:58:24.080Z,6.43
2023-04-15T19:00:51.874Z,5.77
2023-04-15T19:03:19.838Z,6.37
2023-04-15T19:05:49.034Z,6.43
2023-04-15T19:08:17.021Z,7.20
2023-04-15T19:10:44.830Z,6.70
2023-04-15T19:13:12.929Z,6.70
2023-04-15T19:15:40.677Z,6.30
2023-04-15T19:18:10.509Z,7.23
2023-04-15T19:20:40.238Z,8.93
2023-04-15T19:23:09.575Z,7.87
2023-04-15T19:25:38.727Z,9.70
2023-04-15T19:28:06.808Z,10.10
2023-04-15T19:30:34.685Z,9.63
2023-04-15T19:33:02.502Z,9.53
2023-04-15T19:35:30.454Z,10.10
2023-04-15T19:37:58.231Z,9.90
2023-04-15T19:40:27.447Z,10.23
2023-04-15T19:42:55.305Z,10.23
2023-04-15T19:45:23.266Z,9.97
2023-04-15T19:47:51.119Z,9.70
2023-04-15T19:50:24.472Z,9.70
2023-04-15T19:52:52.481Z,10.80
2023-04-15T19:55:20.424Z,11.87
2023-04-15T19:57:49.601Z,11.17
2023-04-15T20:00:17.467Z,12.47
2023-04-15T20:02:45.515Z,12.90
2023-04-15T20:05:13.908Z,13.23
2023-04-15T20:07:42.483Z,13.30
2023-04-15T20:10:13.229Z,13.83
2023-04-15T20:12:50.465Z,13.67
2023-04-15T20:15:23.723Z,14.10
2023-04-15T20:17:51.808Z,14.53
2023-04-15T20:20:20.012Z,15.00
2023-04-15T20:22:47.768Z,16.30
2023-04-15T20:25:15.820Z,16.43
2023-04-15T20:27:43.565Z,16.70
2023-04-15T20:30:12.116Z,19.80
2023-04-15T20:32:41.191Z,18.67
2023-04-15T20:35:10.036Z,18.13
2023-04-15T20:37:40.377Z,19.43
2023-04-15T20:40:09.441Z,18.93
2023-04-15T20:42:37.897Z,22.23
2023-04-15T20:45:07.063Z,20.73
2023-04-15T20:47:37.983Z,20.33
2023-04-15T20:50:10.476Z,20.27
2023-04-15T20:52:41.239Z,18.40
2023-04-15T20:55:09.823Z,16.87
2023-04-15T20:57:37.563Z,16.90
2023-04-15T21:00:06.529Z,15.13
2023-04-15T21:02:35.569Z,14.93
2023-04-15T21:05:03.686Z,15.40
2023-04-15T21:07:32.906Z,15.87
2023-04-15T21:10:00.714Z,15.73
2023-04-15T21:12:28.530Z,15.20
2023-04-15T21:14:56.267Z,14.67
2023-04-15T21:17:24.003Z,14.93
2023-04-15T21:19:51.788Z,15.20
2023-04-15T21:22:19.536Z,15.97
2023-04-15T21:24:49.613Z,15.03
2023-04-15T21:27:17.317Z,14.57
2023-04-15T21:29:45.475Z,16.07
2023-04-15T21:32:13.239Z,15.73
2023-04-15T21:34:41.045Z,16.07
2023-04-15T21:37:08.794Z,16.20
2023-04-15T21:39:36.534Z,20.13
2023-04-15T21:42:05.864Z,19.47
2023-04-15T21:44:33.624Z,17.87
2023-04-15T21:47:01.987Z,17.93
2023-04-15T21:49:30.131Z,19.73
2023-04-15T21:52:01.264Z,18.33
2023-04-15T21:54:31.017Z,20.97
2023-04-15T21:56:58.720Z,19.77
2023-04-15T21:59:27.740Z,20.37
2023-04-15T22:01:55.652Z,22.07
2023-04-15T22:04:23.571Z,21.90
2023-04-15T22:06:52.226Z,23.40
2023-04-15T22:09:19.991Z,23.10
2023-04-15T22:11:48.386Z,23.87
2023-04-15T22:14:16.266Z,24.60
2023-04-15T22:16:45.713Z,24.10
2023-04-15T22:19:13.483Z,25.17
2023-04-15T22:21:41.157Z,23.53
2023-04-15T22:24:32.973Z,24.80
2023-04-15T22:26:56.788Z,25.60
2023-04-15T22:29:24.451Z,28.40
2023-04-15T22:31:54.639Z,28.43
2023-04-15T22:34:22.459Z,30.83
2023-04-15T22:36:50.797Z,30.20
2023-04-15T22:39:19.369Z,24.50
2023-04-15T22:41:47.856Z,27.00
2023-04-15T22:44:15.758Z,26.43
2023-04-15T22:46:43.839Z,24.43
2023-04-15T22:49:13.033Z,23.97
2023-04-15T22:51:40.780Z,19.63
2023-04-15T22:54:08.551Z,19.40
2023-04-15T22:56:36.256Z,19.33
2023-04-15T22:59:04.022Z,20.00
2023-04-15T23:01:32.383Z,23.83
2023-04-15T23:04:05.902Z,21.57
2023-04-15T23:06:49.321Z,20.23
2023-04-15T23:09:17.108Z,19.20
2023-04-15T23:11:44.851Z,29.13
2023-04-15T23:14:12.550Z,29.77
2023-04-15T23:16:40.378Z,31.10
2023-04-15T23:19:08.404Z,33.53
2023-04-15T23:21:36.565Z,34.27
2023-04-15T23:24:06.036Z,33.50
2023-04-15T23:26:33.720Z,32.70
2023-04-15T23:29:01.483Z,35.23
2023-04-15T23:31:29.305Z,35.17
2023-04-15T23:33:57.087Z,34.37
2023-04-15T23:36:24.850Z,34.50
2023-04-15T23:38:52.576Z,35.83
2023-04-15T23:41:21.693Z,34.73
2023-04-15T23:43:49.747Z,34.10
2023-04-15T23:46:17.822Z,34.03
2023-04-15T23:48:47.669Z,34.50
2023-04-15T23:51:15.631Z,32.53
2023-04-15T23:53:43.386Z,30.27
2023-04-15T23:56:11.216Z,32.10
2023-04-15T23:58:40.367Z,25.83
